Date,TemperatureHighF,TemperatureAvgF,TemperatureLowF,DewpointHighF,DewpointAvgF,DewpointLowF,HumidityHigh,HumidityAvg,HumidityLow,PressureMaxIn,PressureMinIn,WindSpeedMaxMPH,WindSpeedAvgMPH,GustSpeedMaxMPH,PrecipitationSumIn
2013-2-1,29.3,17.1,6.2,16.3,4.1,-2.4,70,57,44,30.54,30.24,13,2,18,0.00
2013-2-2,37.9,31.9,27.0,24.0,19.2,12.1,88,60,48,30.24,30.08,16,3,22,0.00
2013-2-3,34.6,29.9,27.0,27.5,18.9,13.4,90,64,43,30.24,30.01,17,3,22,0.10
2013-2-4,48.5,34.7,27.9,31.8,24.0,15.7,79,65,47,30.02,29.83,14,2,19,0.00
2013-2-5,51.5,36.4,26.5,34.3,27.9,21.2,86,72,49,30.17,29.91,12,2,20,0.00
2013-2-6,53.0,39.0,23.1,33.5,28.2,20.4,90,68,43,30.24,30.04,11,1,13,0.00
2013-2-7,44.9,41.1,35.3,42.7,36.2,31.0,92,83,59,30.10,29.88,15,1,21,0.41
2013-2-8,35.2,33.7,32.0,32.0,28.4,26.2,91,81,75,30.42,30.11,19,2,19,0.00
2013-2-9,41.0,35.1,29.4,34.5,28.0,24.6,86,75,63,30.39,30.01,11,2,15,0.14
2013-2-10,61.8,48.1,38.2,51.5,38.6,28.4,91,73,32,30.01,29.50,26,5,33,0.28
2013-2-11,48.0,40.1,30.3,28.6,25.5,21.9,80,56,41,30.19,29.76,24,8,31,0.00
2013-2-12,41.7,32.8,23.3,29.5,25.6,20.0,89,76,56,30.21,29.98,5,0,9,0.00
2013-2-13,50.3,39.3,29.7,32.5,29.0,25.2,87,68,47,29.99,29.82,13,2,20,0.00
2013-2-14,50.7,44.4,39.2,33.9,30.7,24.9,74,59,47,30.09,29.80,19,4,21,0.00
2013-2-15,39.1,32.3,26.2,27.1,16.7,11.3,73,54,34,30.33,30.09,15,4,25,0.00
2013-2-16,35.0,26.0,19.0,15.4,13.0,9.6,76,58,39,30.32,30.20,13,2,16,0.00
2013-2-17,47.0,34.1,19.3,30.5,20.4,13.6,85,60,34,30.21,29.88,11,2,16,0.00
2013-2-18,57.4,44.8,30.6,47.9,35.9,19.9,86,71,60,29.93,29.49,22,4,27,0.20
2013-2-19,30.4,24.6,20.7,19.7,12.6,8.8,69,60,46,30.36,29.93,24,6,30,0.00
2013-2-20,24.7,19.8,12.8,13.3,9.3,4.9,73,63,55,30.46,30.34,8,1,11,0.00
2013-2-21,30.8,24.4,20.0,28.8,20.3,13.1,95,84,73,30.38,29.86,12,3,18,0.00
2013-2-22,32.9,29.7,21.5,30.8,25.0,16.5,92,83,71,30.09,29.82,13,2,14,0.01
2013-2-23,32.8,22.3,11.5,20.3,15.3,8.1,88,75,56,30.09,30.03,13,1,13,0.09
2013-2-24,45.2,27.7,8.3,25.5,17.3,4.3,86,67,40,30.17,30.06,7,1,11,0.08
2013-2-25,43.8,34.8,22.9,32.3,26.8,18.5,88,73,54,30.12,29.75,15,2,17,0.00
2013-2-26,36.4,34.0,33.0,32.5,31.1,29.3,91,89,80,29.75,29.45,16,3,17,0.35
2013-2-27,35.0,32.5,31.2,30.9,29.2,26.9,92,87,82,29.93,29.70,15,5,21,0.20
2013-2-28,34.3,32.0,30.5,28.8,27.4,26.1,88,83,75,30.16,29.92,12,3,16,0.03